Pleasant Hill, Kentucky
Current Conditions -  °F | °C
As of 2:53 PM on Sunday 25 Jan 2015 (Local Time) from KLUK Reporting Station
Light Rain Light Rain  
Wind Chill: 41°   Ceiling: 5500
Heat Index: 41°   Visibility: 10mi
Dew Point: 34°   Wind: 3mph
Humidity: 76%   Direction: NA
Pressure: 29.69"   Gusts: NA
Location:  38.7935°N, 84.3267°W
Report Text: KLUK 251953Z VRB03KT 10SM -RA FEW040 OVC055 05/01 A2969 RMK AO2 SLP055 P0000 T00500011
Loading
Personal Weather Stations






























Interactive Weather Map New forecast layout! Learn more

10-Day Weather Forecast

Advertisements
Track Severe Weather on mobile